createdAt,value
2023-01-22T00:02:42.899Z,100119.67
2023-01-22T00:18:04.146Z,100123.11
2023-01-22T00:33:26.384Z,100137.77
2023-01-22T00:48:32.619Z,100128.75
2023-01-22T01:03:37.997Z,100146.03
2023-01-22T01:18:42.074Z,100157.12
2023-01-22T01:33:46.814Z,100164.71
2023-01-22T01:48:53.586Z,100169.73
2023-01-22T02:03:58.065Z,100177.19
2023-01-22T02:19:02.055Z,100187.52
2023-01-22T02:34:07.188Z,100192.00
2023-01-22T02:49:11.697Z,100201.96
2023-01-22T03:04:34.239Z,100205.70
2023-01-22T03:19:57.768Z,100214.25
2023-01-22T03:35:03.520Z,100225.64
2023-01-22T03:50:18.259Z,100229.29
2023-01-22T04:05:40.849Z,100232.40
2023-01-22T04:20:45.957Z,100246.83
2023-01-22T04:36:10.578Z,100255.29
2023-01-22T04:51:14.854Z,100265.49
2023-01-22T05:06:37.032Z,100277.45
2023-01-22T05:21:41.519Z,100291.93
2023-01-22T05:36:45.552Z,100305.94
2023-01-22T05:51:52.799Z,100322.30
2023-01-22T06:06:57.057Z,100331.85
2023-01-22T06:22:01.699Z,100348.52
2023-01-22T06:37:12.341Z,100373.52
2023-01-22T06:52:16.405Z,100383.38
2023-01-22T07:07:21.539Z,100399.42
2023-01-22T07:22:42.732Z,100419.31
2023-01-22T07:37:53.543Z,100434.02
2023-01-22T07:52:57.605Z,100445.45
2023-01-22T08:08:01.938Z,100461.66
2023-01-22T08:23:07.637Z,100462.22
2023-01-22T08:38:14.300Z,100474.41
2023-01-22T08:53:18.024Z,100487.13
2023-01-22T09:08:22.866Z,100485.76
2023-01-22T09:23:26.847Z,100489.70
2023-01-22T09:38:31.720Z,100504.20
2023-01-22T09:53:35.488Z,100511.13
2023-01-22T10:08:46.319Z,100512.30
2023-01-22T10:23:50.555Z,100516.95
2023-01-22T10:39:07.055Z,100529.13
2023-01-22T10:54:23.587Z,100515.42
2023-01-22T11:09:31.961Z,100514.41
2023-01-22T11:24:39.542Z,100510.90
2023-01-22T11:39:49.831Z,100510.48
2023-01-22T11:54:53.771Z,100505.95
2023-01-22T12:10:10.700Z,100512.01
2023-01-22T12:25:17.820Z,100507.19
2023-01-22T12:40:25.515Z,100502.48
2023-01-22T12:55:44.222Z,100505.27
2023-01-22T13:10:54.543Z,100512.88
2023-01-22T13:25:58.549Z,100519.39
2023-01-22T13:41:13.587Z,100525.92
2023-01-22T13:56:17.720Z,100540.08
2023-01-22T14:11:22.212Z,100555.00
2023-01-22T14:26:26.128Z,100556.63
2023-01-22T14:41:30.709Z,100561.02
2023-01-22T14:56:35.022Z,100571.72
2023-01-22T15:11:39.996Z,100592.80
2023-01-22T15:26:45.375Z,100603.79
2023-01-22T15:41:53.778Z,100620.16
2023-01-22T15:56:59.807Z,100619.52
2023-01-22T16:12:07.001Z,100629.84
2023-01-22T16:27:10.794Z,100654.85
2023-01-22T16:42:15.222Z,100672.20
2023-01-22T16:57:20.901Z,100681.63
2023-01-22T17:12:29.884Z,100695.83
2023-01-22T17:27:41.176Z,100702.98
2023-01-22T17:42:50.365Z,100714.26
2023-01-22T17:57:57.597Z,100722.62
2023-01-22T18:13:03.949Z,100742.76
2023-01-22T18:28:07.988Z,100752.98
2023-01-22T18:43:12.942Z,100769.23
2023-01-22T18:58:37.007Z,100769.70
2023-01-22T19:13:41.439Z,100781.91
2023-01-22T19:28:46.044Z,100811.49
2023-01-22T19:43:56.299Z,100822.19
2023-01-22T19:59:09.753Z,100831.60
2023-01-22T20:14:15.737Z,100839.63
2023-01-22T20:29:20.317Z,100839.86
2023-01-22T20:44:25.697Z,100857.42
2023-01-22T20:59:30.747Z,100867.58
2023-01-22T21:14:36.147Z,100874.05
2023-01-22T21:29:40.569Z,100884.98
2023-01-22T21:45:05.234Z,100896.20
2023-01-22T22:00:09.597Z,100908.63
2023-01-22T22:15:15.239Z,100923.61
2023-01-22T22:30:20.039Z,100938.22
2023-01-22T22:45:26.902Z,100946.88
2023-01-22T23:00:31.116Z,100957.46
2023-01-22T23:15:37.289Z,100973.92
2023-01-22T23:30:41.385Z,100994.64
2023-01-22T23:45:46.942Z,100992.33
